Stephenson, Michigan
Current Conditions -  °F | °C
As of 8:35 AM on Tuesday 21 Oct 2014 (Local Time) from KMNM Reporting Station
Overcast Overcast  
Wind Chill: 35°   Ceiling: 2200
Heat Index: 43°   Visibility: 10mi
Dew Point: 34°   Wind: 17mph
Humidity: 70%   Direction: 50°NE
Pressure: 30.2"   Gusts: 22mph
Location:  45.42°N, 87.61°W
Report Text: KMNM 211335Z AUTO 05015G19KT 10SM OVC022 06/01 A3020 RMK AO1
Loading
Personal Weather Stations






























Interactive Weather Map
Tropical Storm Tracking
New forecast layout! Learn more

10-Day Weather Forecast

Advertisements
Track Severe Weather on mobile